createdAt,value
2017-05-10T00:00:40.763Z,0
2017-05-10T00:01:40.812Z,0
2017-05-10T00:02:40.832Z,0
2017-05-10T00:03:40.864Z,0
2017-05-10T00:04:40.886Z,0
2017-05-10T00:05:40.917Z,0
2017-05-10T00:06:40.944Z,0
2017-05-10T00:07:40.965Z,0
2017-05-10T00:08:41.002Z,0
2017-05-10T00:09:41.018Z,0
2017-05-10T00:10:41.056Z,0
2017-05-10T00:11:41.089Z,0
2017-05-10T00:12:41.108Z,0
2017-05-10T00:13:41.136Z,0
2017-05-10T00:14:41.167Z,0
2017-05-10T00:15:41.191Z,0
2017-05-10T00:16:41.234Z,0
2017-05-10T00:17:41.240Z,0
2017-05-10T00:18:41.269Z,0
2017-05-10T00:19:41.307Z,0
2017-05-10T00:20:41.333Z,0
2017-05-10T00:21:41.369Z,0
2017-05-10T00:22:41.384Z,0
2017-05-10T00:23:41.419Z,0
2017-05-10T00:24:41.446Z,0
2017-05-10T00:25:41.470Z,0
2017-05-10T00:26:41.499Z,0
2017-05-10T00:27:41.538Z,0
2017-05-10T00:28:41.555Z,0
2017-05-10T00:29:41.584Z,0
2017-05-10T00:30:41.622Z,0
2017-05-10T00:31:41.637Z,0
2017-05-10T00:32:41.653Z,0
2017-05-10T00:33:41.739Z,0
2017-05-10T00:34:41.733Z,0
2017-05-10T00:35:41.753Z,0
2017-05-10T00:36:41.778Z,0
2017-05-10T00:37:41.796Z,0
2017-05-10T00:38:41.821Z,0
2017-05-10T00:39:41.911Z,0
2017-05-10T00:40:41.911Z,0
2017-05-10T00:41:41.916Z,0
2017-05-10T00:42:41.941Z,0
2017-05-10T00:43:41.980Z,0
2017-05-10T00:44:42.002Z,0
2017-05-10T00:45:42.032Z,0
2017-05-10T00:46:42.049Z,0
2017-05-10T00:47:42.128Z,0
2017-05-10T00:48:42.098Z,0
2017-05-10T00:49:42.147Z,0
2017-05-10T00:50:42.177Z,0
2017-05-10T00:51:42.185Z,0
2017-05-10T00:52:42.246Z,0
2017-05-10T00:53:42.239Z,0
2017-05-10T00:54:42.282Z,0
2017-05-10T00:55:42.311Z,0
2017-05-10T00:56:42.321Z,0
2017-05-10T00:57:42.355Z,0
2017-05-10T00:58:42.376Z,0
2017-05-10T00:59:42.430Z,0
2017-05-10T01:00:42.440Z,0
2017-05-10T01:01:42.453Z,0
2017-05-10T01:02:42.486Z,0
2017-05-10T01:03:42.534Z,0
2017-05-10T01:04:42.575Z,0
2017-05-10T01:05:42.590Z,0
2017-05-10T01:06:42.603Z,0
2017-05-10T01:07:42.647Z,0
2017-05-10T01:08:42.653Z,0
2017-05-10T01:09:42.706Z,0
2017-05-10T01:10:42.725Z,0
2017-05-10T01:11:42.751Z,0
2017-05-10T01:12:42.776Z,0
2017-05-10T01:13:42.832Z,0
2017-05-10T01:14:42.846Z,0
2017-05-10T01:15:42.869Z,0
2017-05-10T01:16:42.898Z,0
2017-05-10T01:17:42.925Z,0
2017-05-10T01:18:42.954Z,0
2017-05-10T01:19:43.018Z,0
2017-05-10T01:20:43.005Z,0
2017-05-10T01:21:43.029Z,0
2017-05-10T01:22:43.052Z,0
2017-05-10T01:23:43.094Z,0
2017-05-10T01:24:43.121Z,0
2017-05-10T01:25:43.144Z,0
2017-05-10T01:26:43.178Z,0
2017-05-10T01:27:43.194Z,0
2017-05-10T01:28:43.250Z,0
2017-05-10T01:29:43.279Z,0
2017-05-10T01:30:43.284Z,0
2017-05-10T01:31:43.369Z,0
2017-05-10T01:32:43.349Z,0
2017-05-10T01:33:43.374Z,0
2017-05-10T01:34:43.372Z,0
2017-05-10T01:35:43.420Z,0
2017-05-10T01:36:43.450Z,0
2017-05-10T01:37:43.492Z,0
2017-05-10T01:38:43.520Z,0
2017-05-10T01:39:43.546Z,0
2017-05-10T01:40:43.562Z,0
2017-05-10T01:41:43.575Z,0
2017-05-10T01:42:43.622Z,0
2017-05-10T01:43:43.651Z,0
2017-05-10T01:44:43.677Z,0
2017-05-10T01:45:43.694Z,0
2017-05-10T01:46:43.769Z,0
2017-05-10T01:47:43.768Z,0
2017-05-10T01:48:43.789Z,0
2017-05-10T01:49:43.817Z,0
2017-05-10T01:50:43.836Z,0
2017-05-10T01:51:43.852Z,0
2017-05-10T01:52:43.898Z,0
2017-05-10T01:53:43.937Z,0
2017-05-10T01:54:43.959Z,0
2017-05-10T01:55:43.974Z,0
2017-05-10T01:56:44.012Z,0
2017-05-10T01:57:44.047Z,0
2017-05-10T01:58:44.076Z,0
2017-05-10T01:59:44.096Z,0
2017-05-10T02:00:44.129Z,0
2017-05-10T02:01:44.164Z,0
2017-05-10T02:02:44.193Z,0
2017-05-10T02:03:44.230Z,0
2017-05-10T02:04:44.291Z,0
2017-05-10T02:05:44.280Z,0
2017-05-10T02:06:44.279Z,0
2017-05-10T02:07:44.320Z,0
2017-05-10T02:08:44.352Z,0
2017-05-10T02:09:44.377Z,0
2017-05-10T02:10:44.373Z,0
2017-05-10T02:11:44.426Z,0
2017-05-10T02:12:44.462Z,0
2017-05-10T02:13:44.475Z,0
2017-05-10T02:14:44.510Z,0
2017-05-10T02:15:44.525Z,0
2017-05-10T02:16:44.569Z,0
2017-05-10T02:17:44.614Z,0
2017-05-10T02:18:44.632Z,0
2017-05-10T02:19:44.655Z,0
2017-05-10T02:20:44.672Z,0
2017-05-10T02:21:44.715Z,0
2017-05-10T02:22:44.754Z,0
2017-05-10T02:23:44.955Z,0
2017-05-10T02:24:44.777Z,0
2017-05-10T02:25:44.821Z,0
2017-05-10T02:26:44.847Z,0
2017-05-10T02:27:44.882Z,0
2017-05-10T02:28:44.897Z,0
2017-05-10T02:29:44.930Z,0
2017-05-10T02:30:44.972Z,0
2017-05-10T02:31:44.985Z,0
2017-05-10T02:32:45.024Z,0
2017-05-10T02:33:45.054Z,0
2017-05-10T02:34:45.094Z,0
2017-05-10T02:35:45.101Z,0
2017-05-10T02:36:45.125Z,0
2017-05-10T02:37:45.164Z,0
2017-05-10T02:38:45.173Z,0
2017-05-10T02:39:45.214Z,0
2017-05-10T02:40:45.241Z,0
2017-05-10T02:41:45.273Z,0
2017-05-10T02:42:45.295Z,0
2017-05-10T02:43:45.329Z,0
2017-05-10T02:44:45.359Z,0
2017-05-10T02:45:45.391Z,0
2017-05-10T02:46:45.385Z,0
2017-05-10T02:47:45.439Z,0
2017-05-10T02:48:45.472Z,0
2017-05-10T02:49:45.483Z,0
2017-05-10T02:50:45.522Z,0
2017-05-10T02:51:45.549Z,0
2017-05-10T02:52:45.587Z,0
2017-05-10T02:53:45.610Z,0
2017-05-10T02:54:45.643Z,0
2017-05-10T02:55:45.640Z,0
2017-05-10T02:56:45.701Z,4
2017-05-10T02:57:45.736Z,4
2017-05-10T02:58:45.761Z,0
2017-05-10T02:59:45.787Z,4
2017-05-10T03:00:45.814Z,4
2017-05-10T03:01:45.822Z,4
2017-05-10T03:02:46.101Z,4
2017-05-10T03:03:45.896Z,8
2017-05-10T03:04:45.915Z,8
2017-05-10T03:05:45.956Z,4
2017-05-10T03:06:45.992Z,8
2017-05-10T03:07:46.042Z,8
2017-05-10T03:08:46.030Z,8
2017-05-10T03:09:46.047Z,12
2017-05-10T03:10:46.093Z,12
2017-05-10T03:11:46.121Z,16
2017-05-10T03:12:46.146Z,20
2017-05-10T03:13:46.173Z,20
2017-05-10T03:14:46.196Z,24
2017-05-10T03:15:46.234Z,32
2017-05-10T03:16:46.249Z,36
2017-05-10T03:17:46.295Z,40
2017-05-10T03:18:46.301Z,44
2017-05-10T03:19:46.346Z,52
2017-05-10T03:20:46.351Z,56
2017-05-10T03:21:46.395Z,64
2017-05-10T03:22:46.427Z,72
2017-05-10T03:23:46.447Z,80
2017-05-10T03:24:46.539Z,84
2017-05-10T03:25:46.508Z,88
2017-05-10T03:26:46.558Z,92
2017-05-10T03:27:46.575Z,104
2017-05-10T03:28:46.615Z,108
2017-05-10T03:29:46.625Z,116
2017-05-10T03:30:46.660Z,124
2017-05-10T03:31:46.667Z,132
2017-05-10T03:32:46.705Z,152
2017-05-10T03:33:46.755Z,168
2017-05-10T03:34:46.804Z,184
2017-05-10T03:35:46.800Z,204
2017-05-10T03:36:46.840Z,228
2017-05-10T03:37:46.853Z,244
2017-05-10T03:38:46.900Z,252
2017-05-10T03:39:46.901Z,264
2017-05-10T03:40:46.941Z,284
2017-05-10T03:41:46.970Z,296
2017-05-10T03:42:46.999Z,304
2017-05-10T03:43:47.013Z,316
2017-05-10T03:44:47.051Z,332
2017-05-10T03:45:47.086Z,352
2017-05-10T03:46:47.095Z,376
2017-05-10T03:47:47.136Z,396
2017-05-10T03:48:47.182Z,420
2017-05-10T03:49:47.198Z,448
2017-05-10T03:50:47.219Z,468
2017-05-10T03:51:47.250Z,488
2017-05-10T03:52:47.284Z,496
2017-05-10T03:53:47.314Z,500
2017-05-10T03:54:47.339Z,516
2017-05-10T03:55:47.366Z,536
2017-05-10T03:56:47.398Z,568
2017-05-10T03:57:47.426Z,596
2017-05-10T03:58:47.502Z,612
2017-05-10T03:59:47.481Z,624
2017-05-10T04:00:47.567Z,656
2017-05-10T04:01:47.589Z,700
2017-05-10T04:02:47.575Z,724
2017-05-10T04:03:48.005Z,748
2017-05-10T04:04:47.670Z,772
2017-05-10T04:05:47.860Z,800
2017-05-10T04:06:47.734Z,828
2017-05-10T04:07:47.748Z,844
2017-05-10T04:08:48.123Z,872
2017-05-10T04:09:47.820Z,916
2017-05-10T04:10:47.855Z,944
2017-05-10T04:11:47.868Z,948
2017-05-10T04:12:47.900Z,940
2017-05-10T04:13:47.933Z,920
2017-05-10T04:14:47.906Z,896
2017-05-10T04:15:47.992Z,888
2017-05-10T04:16:48.376Z,888
2017-05-10T04:17:48.038Z,904
2017-05-10T04:18:48.066Z,920
2017-05-10T04:19:48.105Z,944
2017-05-10T04:20:48.142Z,968
2017-05-10T04:21:48.146Z,992
2017-05-10T04:22:48.172Z,1008
2017-05-10T04:23:48.216Z,1032
2017-05-10T04:24:48.246Z,1064
2017-05-10T04:25:48.274Z,1120
2017-05-10T04:26:48.299Z,1212
2017-05-10T04:27:48.370Z,1312
2017-05-10T04:28:48.368Z,1428
2017-05-10T04:29:48.389Z,1588
2017-05-10T04:30:48.407Z,1800
2017-05-10T04:31:48.449Z,2040
2017-05-10T04:32:48.467Z,2284
2017-05-10T04:33:48.505Z,2544
2017-05-10T04:34:48.540Z,2760
2017-05-10T04:35:48.570Z,2904
2017-05-10T04:36:48.595Z,2956
2017-05-10T04:37:48.974Z,2936
2017-05-10T04:38:48.638Z,2888
2017-05-10T04:39:48.689Z,2832
2017-05-10T04:40:48.693Z,2736
2017-05-10T04:41:48.730Z,2592
2017-05-10T04:42:48.767Z,2384
2017-05-10T04:43:48.776Z,2240
2017-05-10T04:44:48.824Z,2204
2017-05-10T04:45:48.833Z,2188
2017-05-10T04:46:48.886Z,2064
2017-05-10T04:47:48.921Z,1924
2017-05-10T04:48:48.938Z,1776
2017-05-10T04:49:48.967Z,1608
2017-05-10T04:50:49.005Z,1420
2017-05-10T04:51:49.043Z,1472
2017-05-10T04:52:49.093Z,1524
2017-05-10T04:53:49.095Z,1508
2017-05-10T04:54:49.119Z,1516
2017-05-10T04:55:49.127Z,1520
2017-05-10T04:56:49.169Z,1636
2017-05-10T04:57:49.206Z,1876
2017-05-10T04:58:49.221Z,2080
2017-05-10T04:59:49.640Z,2292
2017-05-10T05:00:49.367Z,2292
2017-05-10T05:01:49.322Z,2176
2017-05-10T05:02:49.577Z,2148
2017-05-10T05:03:49.389Z,2112
2017-05-10T05:04:49.409Z,1992
2017-05-10T05:05:49.439Z,1868
2017-05-10T05:06:49.454Z,1868
2017-05-10T05:07:49.480Z,1996
2017-05-10T05:08:49.509Z,2220
2017-05-10T05:09:49.582Z,2260
2017-05-10T05:10:49.581Z,2280
2017-05-10T05:11:49.615Z,2356
2017-05-10T05:12:49.672Z,2424
2017-05-10T05:13:49.680Z,2476
2017-05-10T05:14:49.710Z,2556
2017-05-10T05:15:49.736Z,2684
2017-05-10T05:16:49.737Z,2796
2017-05-10T05:17:49.779Z,2888
2017-05-10T05:18:49.819Z,2952
2017-05-10T05:19:49.857Z,3000
2017-05-10T05:20:49.880Z,3060
2017-05-10T05:21:49.910Z,3180
2017-05-10T05:22:49.941Z,3352
2017-05-10T05:23:50.296Z,3556
2017-05-10T05:24:50.008Z,3764
2017-05-10T05:25:50.074Z,4004
2017-05-10T05:26:50.055Z,4304
2017-05-10T05:27:50.122Z,4556
2017-05-10T05:28:50.116Z,4732
2017-05-10T05:29:50.157Z,4840
2017-05-10T05:30:50.184Z,4900
2017-05-10T05:31:50.551Z,4892
2017-05-10T05:32:50.240Z,4828
2017-05-10T05:33:50.260Z,4724
2017-05-10T05:34:50.305Z,4608
2017-05-10T05:35:50.348Z,4480
2017-05-10T05:36:50.346Z,4332
2017-05-10T05:37:50.489Z,4204
2017-05-10T05:38:50.410Z,4100
2017-05-10T05:39:50.449Z,4052
2017-05-10T05:40:50.453Z,4096
2017-05-10T05:41:50.685Z,4184
2017-05-10T05:42:50.556Z,4308
2017-05-10T05:43:50.545Z,4404
2017-05-10T05:44:50.591Z,4480
2017-05-10T05:45:50.620Z,4584
2017-05-10T05:46:50.647Z,4696
2017-05-10T05:47:50.676Z,4868
2017-05-10T05:48:50.727Z,5076
2017-05-10T05:49:50.755Z,5284
2017-05-10T05:50:51.189Z,5536
2017-05-10T05:51:50.839Z,5680
2017-05-10T05:52:50.854Z,5800
2017-05-10T05:53:51.222Z,5900
2017-05-10T05:54:51.276Z,6032
2017-05-10T05:55:50.995Z,6180
2017-05-10T05:56:50.929Z,6256
2017-05-10T05:57:51.002Z,6500
2017-05-10T05:58:51.037Z,6964
2017-05-10T05:59:51.067Z,7612
2017-05-10T06:00:51.192Z,8412
2017-05-10T06:01:51.133Z,8756
2017-05-10T06:02:51.139Z,8748
2017-05-10T06:03:51.167Z,9132
2017-05-10T06:04:51.226Z,9228
2017-05-10T06:05:51.259Z,9744
2017-05-10T06:06:51.270Z,9772
2017-05-10T06:07:51.323Z,9768
2017-05-10T06:08:51.324Z,9528
2017-05-10T06:09:51.381Z,9168
2017-05-10T06:10:51.419Z,8992
2017-05-10T06:11:51.436Z,8648
2017-05-10T06:12:51.477Z,8400
2017-05-10T06:13:51.869Z,8180
2017-05-10T06:14:51.531Z,7920
2017-05-10T06:15:51.571Z,7532
2017-05-10T06:16:51.599Z,7312
2017-05-10T06:17:51.636Z,7340
2017-05-10T06:18:51.661Z,7544
2017-05-10T06:19:51.901Z,7684
2017-05-10T06:20:51.726Z,7744
2017-05-10T06:21:51.991Z,7224
2017-05-10T06:22:51.785Z,7044
2017-05-10T06:23:51.837Z,7104
2017-05-10T06:24:51.868Z,7428
2017-05-10T06:25:51.870Z,7860
2017-05-10T06:26:51.924Z,8584
2017-05-10T06:27:51.964Z,9312
2017-05-10T06:28:52.011Z,9584
2017-05-10T06:29:52.077Z,9580
2017-05-10T06:30:52.059Z,9492
2017-05-10T06:31:52.108Z,9884
2017-05-10T06:32:52.113Z,10396
2017-05-10T06:33:52.170Z,10344
2017-05-10T06:34:52.202Z,10288
2017-05-10T06:35:52.555Z,10112
2017-05-10T06:36:52.252Z,9936
2017-05-10T06:37:54.609Z,9532
2017-05-10T06:38:52.330Z,9836
2017-05-10T06:39:52.705Z,10456
2017-05-10T06:40:52.401Z,10720
2017-05-10T06:41:52.423Z,10760
2017-05-10T06:42:52.460Z,10548
2017-05-10T06:43:52.501Z,10340
2017-05-10T06:44:52.882Z,10420
2017-05-10T06:45:53.535Z,11000
2017-05-10T06:46:52.792Z,11496
2017-05-10T06:47:52.618Z,12080
2017-05-10T06:48:52.670Z,12844
2017-05-10T06:49:52.687Z,12404
2017-05-10T06:50:52.724Z,11164
2017-05-10T06:51:52.770Z,10884
2017-05-10T06:52:52.805Z,10664
2017-05-10T06:53:52.831Z,10572
2017-05-10T06:54:52.872Z,11420
2017-05-10T06:55:52.918Z,11544
2017-05-10T06:56:52.944Z,11892
2017-05-10T06:57:52.986Z,11836
2017-05-10T06:58:53.006Z,12124
2017-05-10T06:59:53.061Z,12192
2017-05-10T07:00:53.304Z,11788
2017-05-10T07:01:53.114Z,11816
2017-05-10T07:02:53.182Z,12448
2017-05-10T07:03:53.220Z,12536
2017-05-10T07:04:53.591Z,12376
2017-05-10T07:05:53.634Z,12520
2017-05-10T07:06:53.322Z,12580
2017-05-10T07:07:53.342Z,12168
2017-05-10T07:08:53.378Z,10816
2017-05-10T07:09:53.431Z,14160
2017-05-10T07:10:53.441Z,15424
2017-05-10T07:11:53.550Z,15680
2017-05-10T07:12:53.542Z,15840
2017-05-10T07:13:53.577Z,15936
2017-05-10T07:14:53.611Z,16288
2017-05-10T07:15:53.639Z,16480
2017-05-10T07:16:53.683Z,17152
2017-05-10T07:17:53.730Z,17728
2017-05-10T07:18:53.726Z,16192
2017-05-10T07:19:53.857Z,12240
2017-05-10T07:20:53.842Z,16512
2017-05-10T07:21:53.843Z,15968
2017-05-10T07:22:54.243Z,15616
2017-05-10T07:23:53.927Z,11060
2017-05-10T07:24:53.987Z,13072
2017-05-10T07:25:54.020Z,22528
2017-05-10T07:26:54.024Z,28032
2017-05-10T07:27:54.086Z,12764
2017-05-10T07:28:54.136Z,29568
2017-05-10T07:29:54.180Z,24608
2017-05-10T07:30:54.246Z,38368
2017-05-10T07:31:54.222Z,40832
2017-05-10T07:32:54.277Z,41248
2017-05-10T07:33:54.329Z,39648
2017-05-10T07:34:54.337Z,39328
2017-05-10T07:35:54.409Z,40608
2017-05-10T07:36:54.445Z,42016
2017-05-10T07:37:54.499Z,42400
2017-05-10T07:38:54.515Z,37120
2017-05-10T07:39:54.544Z,39232
2017-05-10T07:40:54.563Z,38976
2017-05-10T07:41:54.980Z,41600
2017-05-10T07:42:55.038Z,28320
2017-05-10T07:43:54.731Z,35072
2017-05-10T07:44:54.749Z,20640
2017-05-10T07:45:55.114Z,34720
2017-05-10T07:46:55.198Z,29344
2017-05-10T07:47:54.875Z,12348
2017-05-10T07:48:54.907Z,28288
2017-05-10T07:49:54.943Z,16864
2017-05-10T07:50:54.992Z,9688
2017-05-10T07:51:55.032Z,11064
2017-05-10T07:52:55.055Z,14328
2017-05-10T07:53:55.136Z,27328
2017-05-10T07:54:55.131Z,28864
2017-05-10T07:55:55.187Z,30816
2017-05-10T07:56:55.229Z,14448
2017-05-10T07:57:55.245Z,30688
2017-05-10T07:58:55.320Z,12572
2017-05-10T07:59:55.327Z,13932
2017-05-10T08:00:58.050Z,13500
2017-05-10T08:01:55.436Z,15552
2017-05-10T08:02:55.475Z,21664
2017-05-10T08:03:55.516Z,11880
2017-05-10T08:04:55.510Z,12292
2017-05-10T08:05:55.578Z,14384
2017-05-10T08:06:55.621Z,18752
2017-05-10T08:07:55.667Z,27680
2017-05-10T08:08:55.719Z,27520
2017-05-10T08:09:55.740Z,23680
2017-05-10T08:10:55.741Z,16032
2017-05-10T08:11:55.826Z,10516
2017-05-10T08:12:55.858Z,10028
2017-05-10T08:13:55.881Z,8448
2017-05-10T08:14:56.272Z,6244
2017-05-10T08:15:55.973Z,6440
2017-05-10T08:16:56.008Z,7832
2017-05-10T08:17:56.051Z,7412
2017-05-10T08:18:56.077Z,6656
2017-05-10T08:19:56.144Z,6208
2017-05-10T08:20:56.146Z,6464
2017-05-10T08:21:56.181Z,6720
2017-05-10T08:22:56.223Z,7696
2017-05-10T08:23:56.279Z,7920
2017-05-10T08:24:56.644Z,9252
2017-05-10T08:25:56.328Z,12356
2017-05-10T08:26:56.735Z,17280
2017-05-10T08:27:56.436Z,17792
2017-05-10T08:28:56.453Z,18016
2017-05-10T08:29:56.484Z,10496
2017-05-10T08:30:56.503Z,9472
2017-05-10T08:31:56.573Z,11548
2017-05-10T08:32:56.604Z,11712
2017-05-10T08:33:56.605Z,15168
2017-05-10T08:34:56.678Z,18272
2017-05-10T08:35:56.739Z,13396
2017-05-10T08:36:56.925Z,12080
2017-05-10T08:37:56.793Z,12728
2017-05-10T08:38:56.830Z,16416
2017-05-10T08:39:56.874Z,16800
2017-05-10T08:40:56.904Z,16768
2017-05-10T08:41:56.923Z,19968
2017-05-10T08:42:56.979Z,18624
2017-05-10T08:43:57.023Z,17216
2017-05-10T08:44:57.398Z,21536
2017-05-10T08:45:57.084Z,20032
2017-05-10T08:46:57.131Z,22208
2017-05-10T08:47:57.145Z,19968
2017-05-10T08:48:57.181Z,20640
2017-05-10T08:49:57.237Z,20160
2017-05-10T08:50:57.272Z,20864
2017-05-10T08:51:57.307Z,21792
2017-05-10T08:52:57.349Z,22592
2017-05-10T08:53:57.384Z,18336
2017-05-10T08:54:57.425Z,19104
2017-05-10T08:55:57.481Z,23744
2017-05-10T08:56:57.545Z,21824
2017-05-10T08:57:57.552Z,20672
2017-05-10T08:58:57.610Z,20928
2017-05-10T08:59:57.644Z,19584
2017-05-10T09:01:07.150Z,14468
2017-05-10T09:01:58.184Z,10516
2017-05-10T09:02:58.225Z,11948
2017-05-10T09:03:58.608Z,14920
2017-05-10T09:04:58.302Z,14956
2017-05-10T09:05:58.352Z,16320
2017-05-10T09:06:58.378Z,8680
2017-05-10T09:07:58.427Z,8484
2017-05-10T09:08:58.474Z,12592
2017-05-10T09:09:58.510Z,13496
2017-05-10T09:10:58.869Z,14276
2017-05-10T09:11:58.577Z,13432
2017-05-10T09:12:58.982Z,12216
2017-05-10T09:13:58.663Z,12960
2017-05-10T09:14:58.717Z,11596
2017-05-10T09:15:58.752Z,13504
2017-05-10T09:16:58.805Z,13904
2017-05-10T09:17:58.833Z,19200
2017-05-10T09:18:59.222Z,14908
2017-05-10T09:19:58.882Z,15216
2017-05-10T09:20:58.918Z,14848
2017-05-10T09:21:59.001Z,13024
2017-05-10T09:22:59.379Z,13136
2017-05-10T09:23:59.277Z,13196
2017-05-10T09:24:59.112Z,17280
2017-05-10T09:25:59.125Z,19200
2017-05-10T09:26:59.182Z,15840
2017-05-10T09:27:59.419Z,10640
2017-05-10T09:28:59.264Z,9864
2017-05-10T09:29:59.313Z,10100
2017-05-10T09:30:59.334Z,10432
2017-05-10T09:31:59.811Z,10404
2017-05-10T09:32:59.417Z,10988
2017-05-10T09:33:59.439Z,11444
2017-05-10T09:34:59.843Z,12004
2017-05-10T09:35:59.534Z,10208
2017-05-10T09:36:59.556Z,8824
2017-05-10T09:37:59.964Z,8304
2017-05-10T09:38:59.633Z,8052
2017-05-10T09:39:59.678Z,6924
2017-05-10T09:40:59.716Z,7684
2017-05-10T09:41:59.749Z,8104
2017-05-10T09:42:59.773Z,9208
2017-05-10T09:43:59.826Z,9400
2017-05-10T09:44:59.836Z,9332
2017-05-10T09:46:00.279Z,8504
2017-05-10T09:46:59.938Z,7396
2017-05-10T09:47:59.969Z,7780
2017-05-10T09:49:00.011Z,10356
2017-05-10T09:50:00.038Z,12628
2017-05-10T09:51:00.064Z,13028
2017-05-10T09:52:00.836Z,13708
2017-05-10T09:53:00.115Z,41568
2017-05-10T09:54:00.194Z,45632
2017-05-10T09:55:00.260Z,17856
2017-05-10T09:56:00.245Z,14020
2017-05-10T09:57:00.629Z,14500
2017-05-10T09:58:00.328Z,14496
2017-05-10T09:59:00.713Z,13380
2017-05-10T10:00:00.747Z,18656
2017-05-10T10:01:13.269Z,36480
2017-05-10T10:02:00.532Z,15584
2017-05-10T10:03:00.514Z,13344
2017-05-10T10:04:00.573Z,11252
2017-05-10T10:05:00.574Z,10504
2017-05-10T10:06:00.618Z,9168
2017-05-10T10:07:00.620Z,8368
2017-05-10T10:08:00.710Z,7508
2017-05-10T10:09:01.060Z,7408
2017-05-10T10:10:01.135Z,7852
2017-05-10T10:11:00.825Z,8504
2017-05-10T10:12:00.828Z,9128
2017-05-10T10:13:00.864Z,8880
2017-05-10T10:14:00.947Z,8496
2017-05-10T10:15:00.965Z,9768
2017-05-10T10:16:00.999Z,10904
2017-05-10T10:17:01.031Z,25888
2017-05-10T10:18:01.028Z,11936
2017-05-10T10:19:01.482Z,12284
2017-05-10T10:20:01.110Z,11160
2017-05-10T10:21:01.173Z,10016
2017-05-10T10:22:01.247Z,9556
2017-05-10T10:23:01.230Z,8204
2017-05-10T10:24:01.278Z,7032
2017-05-10T10:25:01.332Z,6676
2017-05-10T10:26:01.326Z,6216
2017-05-10T10:27:01.349Z,5768
2017-05-10T10:28:01.747Z,5524
2017-05-10T10:29:01.782Z,5336
2017-05-10T10:30:01.475Z,5216
2017-05-10T10:31:01.531Z,5644
2017-05-10T10:32:01.518Z,6048
2017-05-10T10:33:01.553Z,6648
2017-05-10T10:34:01.852Z,6708
2017-05-10T10:35:01.653Z,6764
2017-05-10T10:36:01.659Z,7076
2017-05-10T10:37:01.720Z,7288
2017-05-10T10:38:01.764Z,7112
2017-05-10T10:39:01.802Z,7000
2017-05-10T10:40:01.832Z,6772
2017-05-10T10:41:01.884Z,6956
2017-05-10T10:42:01.929Z,6976
2017-05-10T10:43:01.923Z,6660
2017-05-10T10:44:01.978Z,7756
2017-05-10T10:45:02.029Z,8824
2017-05-10T10:46:02.040Z,10828
2017-05-10T10:47:02.079Z,11780
2017-05-10T10:48:02.122Z,11248
2017-05-10T10:49:02.129Z,11960
2017-05-10T10:50:02.181Z,12004
2017-05-10T10:51:02.225Z,11080
2017-05-10T10:52:02.247Z,9324
2017-05-10T10:53:02.336Z,9060
2017-05-10T10:54:02.336Z,8600
2017-05-10T10:55:02.367Z,7848
2017-05-10T10:56:02.406Z,7424
2017-05-10T10:57:02.471Z,6924
2017-05-10T10:58:02.814Z,7616
2017-05-10T10:59:02.499Z,8996
2017-05-10T11:00:02.569Z,8600
2017-05-10T11:01:02.567Z,8796
2017-05-10T11:02:02.596Z,8808
2017-05-10T11:03:02.632Z,9132
2017-05-10T11:04:02.667Z,8848
2017-05-10T11:05:02.674Z,10592
2017-05-10T11:06:02.938Z,10108
2017-05-10T11:07:03.100Z,8736
2017-05-10T11:08:02.780Z,8276
2017-05-10T11:09:02.813Z,7904
2017-05-10T11:10:03.229Z,6624
2017-05-10T11:11:02.900Z,6216
2017-05-10T11:12:03.274Z,5808
2017-05-10T11:13:02.919Z,5780
2017-05-10T11:14:03.014Z,5764
2017-05-10T11:15:03.092Z,5724
2017-05-10T11:16:03.075Z,6124
2017-05-10T11:17:03.120Z,6496
2017-05-10T11:18:03.133Z,6252
2017-05-10T11:19:03.178Z,7140
2017-05-10T11:20:03.179Z,8496
2017-05-10T11:21:03.246Z,9780
2017-05-10T11:22:03.257Z,11492
2017-05-10T11:23:03.304Z,11952
2017-05-10T11:24:03.705Z,12480
2017-05-10T11:25:03.403Z,13484
2017-05-10T11:26:03.425Z,13976
2017-05-10T11:27:03.437Z,13212
2017-05-10T11:28:03.522Z,11972
2017-05-10T11:29:03.523Z,9904
2017-05-10T11:30:03.558Z,9380
2017-05-10T11:31:03.564Z,10008
2017-05-10T11:32:03.675Z,10792
2017-05-10T11:33:03.666Z,11016
2017-05-10T11:34:03.681Z,10928
2017-05-10T11:35:03.895Z,11052
2017-05-10T11:36:03.780Z,11440
2017-05-10T11:37:03.934Z,12092
2017-05-10T11:38:03.838Z,12832
2017-05-10T11:39:03.897Z,13716
2017-05-10T11:40:03.927Z,13748
2017-05-10T11:41:03.956Z,12704
2017-05-10T11:42:03.954Z,11820
2017-05-10T11:43:04.017Z,12072
2017-05-10T11:44:04.027Z,11896
2017-05-10T11:45:04.425Z,13196
2017-05-10T11:46:04.503Z,12800
2017-05-10T11:47:04.496Z,11444
2017-05-10T11:48:04.381Z,10116
2017-05-10T11:49:04.441Z,9892
2017-05-10T11:50:04.220Z,10992
2017-05-10T11:51:04.294Z,10896
2017-05-10T11:52:04.344Z,12312
2017-05-10T11:53:04.325Z,12408
2017-05-10T11:56:44.104Z,9188
2017-05-10T11:57:44.145Z,9144
2017-05-10T11:58:44.174Z,9592
2017-05-10T11:59:44.224Z,8868
2017-05-10T12:00:44.253Z,8200
2017-05-10T12:01:44.285Z,8768
2017-05-10T12:04:52.741Z,10996
2017-05-10T12:05:16.348Z,11120
2017-05-10T12:06:09.258Z,11228
2017-05-10T12:07:16.078Z,10976
2017-05-10T12:08:07.783Z,10736
2017-05-10T12:09:10.638Z,10408
2017-05-10T12:10:10.294Z,9824
2017-05-10T12:11:11.213Z,9760
2017-05-10T12:12:35.605Z,9724
2017-05-10T12:13:15.802Z,10120
2017-05-10T12:14:19.673Z,10696
2017-05-10T12:15:31.001Z,10892
2017-05-10T12:16:55.731Z,10008
2017-05-10T12:17:17.102Z,9832
2017-05-10T12:18:14.323Z,9752
2017-05-10T12:19:21.638Z,9956
2017-05-10T12:20:16.455Z,9440
2017-05-10T12:21:16.754Z,10244
